Time;durP1;ratioP1;P1;durP2;ratioP2;P2;SDS_P1;SDS_P2;PMS_P1;PMS_P2;Temp;Humidity;BMP_temperature;BMP_pressure;BME280_temperature;BME280_humidity;BME280_pressure;Samples;Min_cycle;Max_cycle;Signal;HPM_P1;HPM_P2
2022/03/16 00:00:39;;;;;;;14.23;6.75;;;;;;;;;;4995339;28;103076;-71
2022/03/16 00:03:06;;;;;;;13.02;6.80;;;;;;;;;;5012487;28;100262;-71
2022/03/16 00:05:33;;;;;;;10.95;5.95;;;;;;;;;;5013154;28;100567;-72
2022/03/16 00:08:00;;;;;;;11.90;6.00;;;;;;;;;;5012257;28;100228;-72
2022/03/16 00:10:27;;;;;;;9.63;6.63;;;;;;;;;;5007958;28;100250;-72
2022/03/16 00:12:54;;;;;;;11.65;7.40;;;;;;;;;;4994731;28;102542;-71
2022/03/16 00:15:21;;;;;;;14.60;7.80;;;;;;;;;;5011710;28;100526;-72
2022/03/16 00:17:47;;;;;;;12.75;7.18;;;;;;;;;;5011835;28;100229;-71
2022/03/16 00:20:14;;;;;;;13.82;7.05;;;;;;;;;;4995165;28;100244;-73
2022/03/16 00:22:42;;;;;;;16.80;8.13;;;;;;;;;;5011097;28;100555;-71
2022/03/16 00:25:10;;;;;;;17.38;8.13;;;;;;;;;;4994559;28;100947;-72
2022/03/16 00:27:37;;;;;;;15.07;8.32;;;;;;;;;;5011803;28;100175;-72
2022/03/16 00:30:06;;;;;;;14.00;7.55;;;;;;;;;;5013296;28;100303;-72
2022/03/16 00:32:34;;;;;;;12.82;7.10;;;;;;;;;;5012482;28;100292;-72
2022/03/16 00:35:02;;;;;;;14.32;7.28;;;;;;;;;;4978871;28;100632;-72
2022/03/16 00:37:29;;;;;;;14.25;8.30;;;;;;;;;;5011197;28;100205;-72
2022/03/16 00:39:57;;;;;;;11.25;6.63;;;;;;;;;;5015672;28;100176;-72
2022/03/16 00:42:24;;;;;;;13.85;7.18;;;;;;;;;;5015955;28;100320;-72
2022/03/16 00:44:50;;;;;;;13.55;6.78;;;;;;;;;;5015201;28;100604;-72
2022/03/16 00:47:17;;;;;;;13.73;7.25;;;;;;;;;;5015468;28;100081;-72
2022/03/16 00:49:44;;;;;;;11.38;6.65;;;;;;;;;;5016184;28;100128;-74
2022/03/16 00:52:11;;;;;;;11.23;7.35;;;;;;;;;;5014734;28;100826;-73
2022/03/16 00:54:38;;;;;;;13.10;7.45;;;;;;;;;;5015881;28;100527;-72
2022/03/16 00:57:06;;;;;;;11.60;6.15;;;;;;;;;;5015355;28;100064;-72
2022/03/16 00:59:39;;;;;;;13.10;8.00;;;;;;;;;;5013718;28;101813;-72
2022/03/16 01:02:06;;;;;;;16.30;10.05;;;;;;;;;;4981560;28;100204;-73
2022/03/16 01:04:33;;;;;;;17.30;9.73;;;;;;;;;;4997801;28;100750;-73
2022/03/16 01:07:02;;;;;;;16.08;9.35;;;;;;;;;;5006129;28;100708;-73
2022/03/16 01:09:28;;;;;;;13.68;8.85;;;;;;;;;;4997947;28;100059;-73
2022/03/16 01:11:58;;;;;;;13.98;8.75;;;;;;;;;;5012947;28;101283;-73
2022/03/16 01:14:27;;;;;;;15.35;8.25;;;;;;;;;;5014335;28;100800;-73
2022/03/16 01:16:54;;;;;;;15.30;8.38;;;;;;;;;;5014607;28;102925;-73
2022/03/16 01:19:22;;;;;;;13.20;8.35;;;;;;;;;;4998525;28;100146;-73
2022/03/16 01:21:49;;;;;;;15.35;8.85;;;;;;;;;;4997520;28;101642;-73
2022/03/16 01:24:16;;;;;;;15.30;9.18;;;;;;;;;;4997651;28;100651;-73
2022/03/16 01:26:43;;;;;;;16.40;8.38;;;;;;;;;;5014882;28;100192;-71
2022/03/16 01:29:09;;;;;;;19.05;9.25;;;;;;;;;;5014920;28;100823;-72
2022/03/16 01:31:36;;;;;;;15.63;8.57;;;;;;;;;;5011485;28;100358;-72
2022/03/16 01:34:03;;;;;;;16.90;8.77;;;;;;;;;;4997820;28;100516;-72
2022/03/16 01:36:30;;;;;;;14.30;7.70;;;;;;;;;;5012449;28;100068;-72
2022/03/16 01:38:57;;;;;;;17.90;9.52;;;;;;;;;;4980255;28;100230;-72
2022/03/16 01:41:24;;;;;;;16.58;8.68;;;;;;;;;;4996956;28;100431;-73
2022/03/16 01:43:56;;;;;;;15.85;9.23;;;;;;;;;;5012254;28;101658;-72
2022/03/16 01:46:23;;;;;;;16.17;8.85;;;;;;;;;;4965251;28;100192;-72
2022/03/16 01:48:50;;;;;;;18.13;9.20;;;;;;;;;;4981474;28;100163;-72
2022/03/16 01:51:17;;;;;;;13.68;7.45;;;;;;;;;;4996203;28;100848;-72
2022/03/16 01:53:44;;;;;;;15.60;8.70;;;;;;;;;;4996825;28;101810;-73
2022/03/16 01:56:11;;;;;;;12.93;7.35;;;;;;;;;;5014036;28;100136;-71
2022/03/16 01:58:37;;;;;;;10.32;6.35;;;;;;;;;;4997744;28;100139;-73
2022/03/16 02:01:04;;;;;;;15.82;8.60;;;;;;;;;;5004968;28;100980;-72
2022/03/16 02:03:32;;;;;;;15.20;8.65;;;;;;;;;;5033209;28;101116;-73
2022/03/16 02:06:00;;;;;;;15.55;8.13;;;;;;;;;;5034050;28;100124;-73
2022/03/16 02:08:30;;;;;;;15.88;8.95;;;;;;;;;;5033875;28;100738;-73
2022/03/16 02:10:57;;;;;;;16.05;8.55;;;;;;;;;;5013623;28;101451;-73
2022/03/16 02:13:27;;;;;;;17.13;9.05;;;;;;;;;;5030837;28;104522;-73
2022/03/16 02:15:53;;;;;;;16.27;7.95;;;;;;;;;;5035027;27;100319;-72
2022/03/16 02:18:20;;;;;;;13.27;6.70;;;;;;;;;;5035393;28;99959;-72
2022/03/16 02:20:50;;;;;;;14.23;7.80;;;;;;;;;;5034674;27;100148;-73
2022/03/16 02:23:16;;;;;;;14.10;8.38;;;;;;;;;;5016602;28;100699;-72
2022/03/16 02:25:50;;;;;;;15.25;8.00;;;;;;;;;;5016851;28;101091;-73
2022/03/16 02:28:18;;;;;;;15.77;8.30;;;;;;;;;;5033060;28;100124;-72
2022/03/16 02:30:45;;;;;;;14.70;8.70;;;;;;;;;;5015580;28;100253;-71
2022/03/16 02:33:12;;;;;;;14.20;8.50;;;;;;;;;;5033244;28;100900;-72
2022/03/16 02:35:38;;;;;;;15.38;9.32;;;;;;;;;;5033221;28;100200;-72
2022/03/16 02:38:06;;;;;;;13.98;8.05;;;;;;;;;;4998265;28;100161;-72
2022/03/16 02:40:32;;;;;;;13.00;7.38;;;;;;;;;;5012279;28;102070;-72
2022/03/16 02:43:00;;;;;;;12.50;7.60;;;;;;;;;;5012248;28;102761;-72
2022/03/16 02:45:27;;;;;;;14.80;8.40;;;;;;;;;;4979169;28;100337;-72
2022/03/16 02:47:53;;;;;;;15.68;8.40;;;;;;;;;;5020045;28;100109;-72
2022/03/16 02:50:20;;;;;;;13.27;8.68;;;;;;;;;;5032186;28;103491;-71
2022/03/16 02:52:47;;;;;;;15.85;9.18;;;;;;;;;;5027186;28;100541;-71
2022/03/16 02:55:34;;;;;;;15.48;8.82;;;;;;;;;;5013595;28;100149;-75
2022/03/16 02:58:01;;;;;;;15.80;8.50;;;;;;;;;;4979909;28;100197;-72
2022/03/16 03:00:28;;;;;;;14.00;7.32;;;;;;;;;;5010455;28;100296;-72
2022/03/16 03:02:55;;;;;;;14.20;7.47;;;;;;;;;;4977607;28;102564;-73
2022/03/16 03:05:22;;;;;;;14.02;8.38;;;;;;;;;;5012907;28;100170;-72
2022/03/16 03:07:49;;;;;;;12.18;7.88;;;;;;;;;;5013706;28;100147;-72
2022/03/16 03:10:16;;;;;;;11.48;6.20;;;;;;;;;;5011788;28;101378;-72
2022/03/16 03:12:42;;;;;;;16.30;8.57;;;;;;;;;;5010757;28;101859;-72
2022/03/16 03:15:16;;;;;;;12.93;7.30;;;;;;;;;;5012335;28;100163;-73
2022/03/16 03:17:43;;;;;;;11.02;6.68;;;;;;;;;;5012873;28;100132;-73
2022/03/16 03:20:10;;;;;;;13.10;7.32;;;;;;;;;;5011703;28;100873;-73
2022/03/16 03:22:37;;;;;;;14.82;8.20;;;;;;;;;;5011692;28;100637;-73
2022/03/16 03:25:04;;;;;;;15.45;8.73;;;;;;;;;;5011749;28;100183;-72
2022/03/16 03:27:32;;;;;;;13.60;8.20;;;;;;;;;;5012014;28;100170;-72
2022/03/16 03:29:59;;;;;;;16.35;8.13;;;;;;;;;;5011601;28;100273;-73
2022/03/16 03:32:26;;;;;;;12.98;8.35;;;;;;;;;;5013725;28;100549;-73
2022/03/16 03:34:55;;;;;;;11.68;7.13;;;;;;;;;;4996770;28;100209;-72
2022/03/16 03:37:22;;;;;;;15.10;8.80;;;;;;;;;;4997059;28;99889;-73
2022/03/16 03:39:49;;;;;;;14.43;8.00;;;;;;;;;;4996168;28;100186;-72
2022/03/16 03:42:16;;;;;;;14.10;8.55;;;;;;;;;;5011737;28;101274;-71
2022/03/16 03:44:43;;;;;;;13.52;8.65;;;;;;;;;;4996475;28;100130;-72
2022/03/16 03:47:10;;;;;;;15.43;9.50;;;;;;;;;;4993729;28;100183;-71
2022/03/16 03:49:38;;;;;;;16.40;8.88;;;;;;;;;;4995617;28;100285;-71
2022/03/16 03:52:05;;;;;;;12.68;7.35;;;;;;;;;;5013500;28;100860;-71
2022/03/16 03:54:32;;;;;;;14.57;8.10;;;;;;;;;;4979416;28;100195;-71
2022/03/16 03:56:59;;;;;;;15.27;8.93;;;;;;;;;;5014103;28;100114;-71
2022/03/16 03:59:29;;;;;;;14.38;8.18;;;;;;;;;;5013663;28;100079;-72
2022/03/16 04:01:56;;;;;;;12.60;7.20;;;;;;;;;;4994778;28;100655;-71
2022/03/16 04:04:23;;;;;;;14.85;9.23;;;;;;;;;;4996088;28;100392;-71
2022/03/16 04:06:51;;;;;;;12.45;7.82;;;;;;;;;;5014143;28;100042;-71
2022/03/16 04:09:17;;;;;;;13.65;8.68;;;;;;;;;;4978799;28;100342;-72
2022/03/16 04:11:44;;;;;;;15.13;8.07;;;;;;;;;;5011859;28;100509;-72
2022/03/16 04:14:11;;;;;;;18.20;9.60;;;;;;;;;;4995740;28;100409;-72
2022/03/16 04:16:38;;;;;;;13.93;8.65;;;;;;;;;;4995936;28;100037;-73
2022/03/16 04:19:05;;;;;;;12.95;7.47;;;;;;;;;;5013128;28;100190;-72
2022/03/16 04:21:33;;;;;;;14.57;8.00;;;;;;;;;;5011686;28;101691;-72
2022/03/16 04:24:01;;;;;;;12.35;8.07;;;;;;;;;;5013343;28;99995;-72
2022/03/16 04:26:28;;;;;;;18.35;9.25;;;;;;;;;;5012360;28;100048;-72
2022/03/16 04:28:55;;;;;;;15.15;8.45;;;;;;;;;;5011621;28;100290;-72
2022/03/16 04:31:22;;;;;;;11.40;7.40;;;;;;;;;;4995039;28;100631;-71
2022/03/16 04:33:49;;;;;;;12.02;8.10;;;;;;;;;;5011778;28;100237;-71
2022/03/16 04:36:16;;;;;;;11.55;7.38;;;;;;;;;;5012369;28;100290;-71
2022/03/16 04:38:43;;;;;;;16.30;9.07;;;;;;;;;;5011466;28;100247;-71
2022/03/16 04:41:10;;;;;;;18.30;10.25;;;;;;;;;;5011273;28;101197;-71
2022/03/16 04:43:37;;;;;;;15.93;10.05;;;;;;;;;;5012847;28;100153;-71
2022/03/16 04:46:04;;;;;;;14.07;8.02;;;;;;;;;;5012871;28;100135;-71
2022/03/16 04:48:31;;;;;;;17.15;9.45;;;;;;;;;;5012703;28;100653;-71
2022/03/16 04:50:58;;;;;;;14.88;8.85;;;;;;;;;;4994692;28;102875;-72
2022/03/16 04:53:25;;;;;;;15.68;8.40;;;;;;;;;;5011730;28;100113;-71
2022/03/16 04:55:51;;;;;;;19.42;9.48;;;;;;;;;;5017538;28;102796;-71
2022/03/16 04:58:18;;;;;;;15.52;9.82;;;;;;;;;;5031217;28;100272;-72
2022/03/16 05:00:45;;;;;;;19.73;11.10;;;;;;;;;;5030434;28;100525;-70
2022/03/16 05:03:14;;;;;;;14.40;8.43;;;;;;;;;;5032219;27;100129;-71
2022/03/16 05:05:41;;;;;;;20.15;10.73;;;;;;;;;;5032106;28;103691;-72
2022/03/16 05:08:08;;;;;;;19.92;10.88;;;;;;;;;;5031925;28;99971;-73
2022/03/16 05:10:35;;;;;;;19.33;10.57;;;;;;;;;;5030824;28;100527;-73
2022/03/16 05:13:02;;;;;;;18.80;10.45;;;;;;;;;;5032558;27;100110;-72
2022/03/16 05:15:29;;;;;;;16.35;9.75;;;;;;;;;;4978507;28;100033;-72
2022/03/16 05:17:55;;;;;;;11.88;7.07;;;;;;;;;;5022913;28;101514;-72
2022/03/16 05:20:22;;;;;;;15.43;8.88;;;;;;;;;;5031432;27;100807;-73
2022/03/16 05:22:51;;;;;;;13.48;8.27;;;;;;;;;;5031472;28;100144;-73
2022/03/16 05:25:22;;;;;;;14.18;7.50;;;;;;;;;;5033393;27;100093;-73
2022/03/16 05:27:49;;;;;;;12.43;7.72;;;;;;;;;;5034416;28;100160;-73
2022/03/16 05:30:16;;;;;;;15.20;8.65;;;;;;;;;;5035445;28;100098;-73
2022/03/16 05:32:51;;;;;;;11.65;7.20;;;;;;;;;;5035551;28;100036;-73
2022/03/16 05:35:18;;;;;;;14.77;9.43;;;;;;;;;;5001484;28;100205;-73
2022/03/16 05:37:45;;;;;;;13.65;9.13;;;;;;;;;;5034221;28;102945;-73
2022/03/16 05:40:12;;;;;;;13.30;7.68;;;;;;;;;;5017512;28;100624;-73
2022/03/16 05:42:38;;;;;;;15.68;9.10;;;;;;;;;;5034716;28;100168;-73
2022/03/16 05:45:06;;;;;;;15.93;9.27;;;;;;;;;;5035936;27;100235;-73
2022/03/16 05:47:33;;;;;;;17.20;9.43;;;;;;;;;;5035521;28;100058;-72
2022/03/16 05:50:00;;;;;;;15.82;9.15;;;;;;;;;;5011443;28;100542;-72
2022/03/16 05:52:29;;;;;;;13.45;9.27;;;;;;;;;;4997934;28;100137;-72
2022/03/16 05:54:56;;;;;;;12.68;7.40;;;;;;;;;;5015740;28;100058;-73
2022/03/16 05:57:23;;;;;;;17.45;9.00;;;;;;;;;;4997150;28;100351;-72
2022/03/16 05:59:50;;;;;;;14.52;8.30;;;;;;;;;;4997336;28;101690;-72
2022/03/16 06:02:17;;;;;;;13.15;7.00;;;;;;;;;;5014086;28;100288;-72
2022/03/16 06:04:47;;;;;;;14.38;8.27;;;;;;;;;;5014023;28;100376;-73
2022/03/16 06:07:14;;;;;;;13.63;7.50;;;;;;;;;;5017156;28;100439;-73
2022/03/16 06:09:41;;;;;;;13.02;7.70;;;;;;;;;;5033679;28;100550;-73
2022/03/16 06:12:08;;;;;;;12.70;7.95;;;;;;;;;;5017487;28;100123;-72
2022/03/16 06:14:35;;;;;;;12.70;6.95;;;;;;;;;;5017519;28;100033;-72
2022/03/16 06:17:02;;;;;;;13.02;8.00;;;;;;;;;;5017018;28;100273;-73
2022/03/16 06:19:29;;;;;;;12.55;7.95;;;;;;;;;;5017355;28;100584;-71
2022/03/16 06:21:56;;;;;;;14.20;9.38;;;;;;;;;;5017296;28;100189;-72
2022/03/16 06:24:23;;;;;;;11.27;5.90;;;;;;;;;;5035397;27;100086;-72
2022/03/16 06:26:49;;;;;;;15.93;9.05;;;;;;;;;;4990573;28;100186;-72
2022/03/16 06:29:17;;;;;;;12.57;7.43;;;;;;;;;;5031572;28;100741;-72
2022/03/16 06:31:43;;;;;;;13.00;7.60;;;;;;;;;;5000591;28;100212;-73
2022/03/16 06:34:10;;;;;;;11.30;6.85;;;;;;;;;;5035060;28;100113;-73
2022/03/16 06:36:37;;;;;;;13.75;7.35;;;;;;;;;;5021745;28;102660;-73
2022/03/16 06:39:04;;;;;;;11.57;6.72;;;;;;;;;;5012822;28;103412;-73
2022/03/16 06:41:32;;;;;;;12.13;7.95;;;;;;;;;;5014838;28;100071;-73
2022/03/16 06:43:58;;;;;;;12.13;7.28;;;;;;;;;;5014980;28;100151;-72
2022/03/16 06:46:27;;;;;;;13.35;8.60;;;;;;;;;;5013452;28;101459;-72
2022/03/16 06:48:54;;;;;;;15.27;9.13;;;;;;;;;;5011570;28;100548;-71
2022/03/16 06:51:21;;;;;;;11.93;7.28;;;;;;;;;;4980342;28;100259;-71
2022/03/16 06:53:48;;;;;;;12.52;8.10;;;;;;;;;;4981040;28;100141;-71
2022/03/16 06:56:15;;;;;;;16.13;9.68;;;;;;;;;;4996312;28;100255;-71
2022/03/16 06:58:42;;;;;;;14.27;8.20;;;;;;;;;;5012867;28;100592;-72
2022/03/16 07:01:08;;;;;;;19.20;9.40;;;;;;;;;;5013869;28;100049;-71
2022/03/16 07:03:49;;;;;;;19.77;10.27;;;;;;;;;;5013357;28;99964;-71
2022/03/16 07:06:50;;;;;;;15.60;8.80;;;;;;;;;;5012251;28;101383;-71
2022/03/16 07:09:51;;;;;;;16.08;8.90;;;;;;;;;;5012885;28;101951;-72
2022/03/16 07:12:39;;;;;;;21.83;12.00;;;;;;;;;;5013559;28;100173;-72
2022/03/16 07:15:06;;;;;;;19.95;11.55;;;;;;;;;;5014429;28;100094;-72
2022/03/16 07:17:34;;;;;;;19.17;11.60;;;;;;;;;;5013882;28;100177;-72
2022/03/16 07:20:07;;;;;;;17.83;10.55;;;;;;;;;;5013707;28;101931;-72
2022/03/16 07:22:35;;;;;;;;;;;;;;;;;;4942835;28;100238;-72
2022/03/16 07:25:19;;;;;;;16.35;8.30;;;;;;;;;;4992496;28;100116;-72
2022/03/16 07:27:47;;;;;;;22.33;11.50;;;;;;;;;;4991333;28;100422;-72
2022/03/16 07:30:13;;;;;;;18.02;9.27;;;;;;;;;;4991855;28;100552;-72
2022/03/16 07:32:40;;;;;;;17.90;10.68;;;;;;;;;;4991285;28;100221;-72
2022/03/16 07:35:11;;;;;;;20.90;9.98;;;;;;;;;;4990881;28;100249;-72
2022/03/16 07:37:38;;;;;;;15.95;10.07;;;;;;;;;;4973561;28;100355;-72
2022/03/16 07:40:07;;;;;;;14.88;8.80;;;;;;;;;;4990018;28;100706;-72
2022/03/16 07:42:37;;;;;;;18.27;9.50;;;;;;;;;;4975131;28;100211;-72
2022/03/16 07:45:06;;;;;;;15.52;8.60;;;;;;;;;;4974970;28;100091;-72
2022/03/16 07:47:32;;;;;;;15.05;9.02;;;;;;;;;;4990612;28;100194;-72
2022/03/16 07:50:08;;;;;;;14.05;8.10;;;;;;;;;;4991609;28;100581;-72
2022/03/16 07:52:35;;;;;;;16.25;8.52;;;;;;;;;;4974745;28;100211;-72
2022/03/16 07:55:02;;;;;;;14.68;9.13;;;;;;;;;;4991887;28;100356;-72
2022/03/16 07:57:29;;;;;;;15.88;8.73;;;;;;;;;;4991485;28;100792;-72
2022/03/16 07:59:56;;;;;;;16.15;10.00;;;;;;;;;;4999947;28;101720;-73
2022/03/16 08:02:23;;;;;;;16.40;9.55;;;;;;;;;;4995583;28;100563;-72
2022/03/16 08:04:50;;;;;;;16.30;9.40;;;;;;;;;;5012484;28;100162;-72
2022/03/16 08:07:17;;;;;;;18.23;9.23;;;;;;;;;;5013257;28;100120;-71
2022/03/16 08:09:44;;;;;;;18.83;9.18;;;;;;;;;;5013224;28;102598;-71
2022/03/16 08:12:10;;;;;;;18.65;10.60;;;;;;;;;;5013608;28;100083;-71
2022/03/16 08:14:38;;;;;;;19.73;10.82;;;;;;;;;;5013687;28;99934;-72
2022/03/16 08:17:05;;;;;;;21.02;11.10;;;;;;;;;;5012914;28;100143;-72
2022/03/16 08:19:32;;;;;;;20.55;11.23;;;;;;;;;;5012715;28;100678;-72
2022/03/16 08:21:59;;;;;;;21.92;11.90;;;;;;;;;;4996224;28;100376;-71
2022/03/16 08:24:26;;;;;;;16.00;10.05;;;;;;;;;;5013475;28;100056;-72
2022/03/16 08:27:13;;;;;;;15.27;9.02;;;;;;;;;;5012438;28;100363;-72
2022/03/16 08:29:40;;;;;;;16.27;8.65;;;;;;;;;;5012380;28;102996;-73
2022/03/16 08:32:07;;;;;;;17.67;10.68;;;;;;;;;;5011778;28;100135;-72
2022/03/16 08:34:34;;;;;;;14.63;8.38;;;;;;;;;;5011819;28;100075;-72
2022/03/16 08:37:01;;;;;;;16.95;9.45;;;;;;;;;;5011602;28;100299;-71
2022/03/16 08:39:29;;;;;;;14.23;9.02;;;;;;;;;;4962653;28;100733;-72
2022/03/16 08:41:58;;;;;;;21.17;11.90;;;;;;;;;;5011539;28;100252;-72
2022/03/16 08:44:25;;;;;;;18.25;10.73;;;;;;;;;;5012998;28;100009;-72
2022/03/16 08:46:52;;;;;;;24.77;11.05;;;;;;;;;;5012368;28;100187;-72
2022/03/16 08:49:21;;;;;;;23.42;11.07;;;;;;;;;;5010358;28;101947;-72
2022/03/16 08:51:48;;;;;;;23.23;12.75;;;;;;;;;;5011313;28;100195;-72
2022/03/16 08:54:15;;;;;;;21.98;11.40;;;;;;;;;;5011694;28;100100;-71
2022/03/16 08:56:42;;;;;;;23.23;11.80;;;;;;;;;;4993981;28;103169;-72
2022/03/16 08:59:09;;;;;;;23.63;12.60;;;;;;;;;;5013173;28;100617;-72
2022/03/16 09:01:37;;;;;;;19.80;12.18;;;;;;;;;;5029094;27;100239;-72
2022/03/16 09:04:04;;;;;;;26.90;13.25;;;;;;;;;;5044295;27;100093;-73
2022/03/16 09:06:31;;;;;;;26.15;13.95;;;;;;;;;;5055163;27;100428;-71
2022/03/16 09:08:58;;;;;;;25.05;13.23;;;;;;;;;;5055053;27;101238;-72
2022/03/16 09:11:25;;;;;;;26.45;14.18;;;;;;;;;;5036547;27;100668;-72
2022/03/16 09:13:52;;;;;;;26.23;12.70;;;;;;;;;;5033947;27;100481;-72
2022/03/16 09:16:18;;;;;;;27.45;13.25;;;;;;;;;;5017450;27;100359;-72
2022/03/16 09:18:47;;;;;;;25.55;12.48;;;;;;;;;;5034585;27;100681;-74
2022/03/16 09:21:14;;;;;;;29.70;14.48;;;;;;;;;;5003288;27;101085;-74
2022/03/16 09:23:41;;;;;;;30.83;17.23;;;;;;;;;;5003349;27;101673;-73
2022/03/16 09:26:08;;;;;;;30.27;15.63;;;;;;;;;;5009646;27;100266;-72
2022/03/16 09:28:34;;;;;;;35.30;17.88;;;;;;;;;;5016697;27;100669;-71
2022/03/16 09:31:01;;;;;;;26.58;14.88;;;;;;;;;;5016927;27;100227;-72
2022/03/16 09:33:31;;;;;;;22.83;13.75;;;;;;;;;;4998391;28;100193;-72
2022/03/16 09:35:58;;;;;;;29.42;14.50;;;;;;;;;;5016825;27;100340;-72
2022/03/16 09:38:24;;;;;;;34.25;15.43;;;;;;;;;;5031366;27;102542;-72
2022/03/16 09:40:52;;;;;;;30.73;13.48;;;;;;;;;;5035987;27;100567;-72
2022/03/16 09:43:20;;;;;;;26.38;12.23;;;;;;;;;;5017589;27;100678;-72
2022/03/16 09:45:58;;;;;;;24.83;12.57;;;;;;;;;;5033664;27;100377;-73
2022/03/16 09:48:26;;;;;;;23.20;10.80;;;;;;;;;;4999432;27;100708;-73
2022/03/16 09:50:54;;;;;;;21.92;11.32;;;;;;;;;;5034696;27;101346;-73
2022/03/16 09:53:22;;;;;;;19.48;11.55;;;;;;;;;;5035421;27;100048;-73
2022/03/16 09:55:52;;;;;;;24.85;12.88;;;;;;;;;;5034727;27;100274;-73
2022/03/16 09:58:22;;;;;;;23.67;13.40;;;;;;;;;;5035060;27;100602;-72
2022/03/16 10:00:56;;;;;;;23.40;11.68;;;;;;;;;;5001104;27;100051;-73
2022/03/16 10:03:28;;;;;;;25.02;13.88;;;;;;;;;;5015239;27;100325;-73
2022/03/16 10:05:56;;;;;;;20.92;12.60;;;;;;;;;;5000692;27;100268;-73
2022/03/16 10:08:35;;;;;;;21.48;12.77;;;;;;;;;;5020457;27;101988;-73
2022/03/16 10:14:07;;;;;;;27.23;13.80;;;;;;;;;;5016609;27;101364;-73
2022/03/16 10:19:20;;;;;;;24.95;13.27;;;;;;;;;;5032667;27;100658;-72
2022/03/16 10:22:00;;;;;;;26.65;15.35;;;;;;;;;;5034696;27;100110;-71
2022/03/16 10:24:30;;;;;;;26.52;14.77;;;;;;;;;;5016653;27;100082;-72
2022/03/16 10:27:01;;;;;;;26.27;15.18;;;;;;;;;;5016391;27;100263;-73
2022/03/16 10:29:31;;;;;;;34.78;16.67;;;;;;;;;;5016134;27;100557;-73
2022/03/16 10:32:02;;;;;;;25.42;15.50;;;;;;;;;;5002332;27;100205;-73
2022/03/16 10:34:29;;;;;;;35.33;18.52;;;;;;;;;;5000188;28;100162;-72
2022/03/16 10:37:00;;;;;;;34.22;18.40;;;;;;;;;;5035617;27;100196;-73
2022/03/16 10:39:36;;;;;;;41.80;20.40;;;;;;;;;;5017520;27;102472;-73
2022/03/16 10:48:00;;;;;;;41.10;21.13;;;;;;;;;;5033030;27;100265;-72
2022/03/16 10:50:27;;;;;;;40.30;21.42;;;;;;;;;;5034849;27;100911;-73
2022/03/16 10:53:01;;;;;;;33.95;19.08;;;;;;;;;;5024744;27;102423;-74
2022/03/16 10:55:28;;;;;;;42.58;22.42;;;;;;;;;;5001594;27;100520;-71
2022/03/16 10:57:55;;;;;;;44.70;22.75;;;;;;;;;;4997406;27;100917;-72
2022/03/16 11:00:22;;;;;;;42.28;21.48;;;;;;;;;;5014217;27;101837;-72
2022/03/16 11:02:50;;;;;;;39.95;20.27;;;;;;;;;;5019864;27;100167;-71
2022/03/16 11:05:18;;;;;;;40.33;20.27;;;;;;;;;;4998871;27;100177;-72
2022/03/16 11:07:47;;;;;;;38.92;21.08;;;;;;;;;;4999647;27;101284;-72
2022/03/16 11:10:14;;;;;;;40.40;21.88;;;;;;;;;;5034081;27;100740;-72
2022/03/16 11:15:26;;;;;;;32.85;17.63;;;;;;;;;;5030349;27;100304;-71
2022/03/16 11:17:53;;;;;;;36.88;20.67;;;;;;;;;;5033934;27;100327;-72
2022/03/16 11:20:20;;;;;;;36.47;20.95;;;;;;;;;;4987664;27;100650;-72
2022/03/16 11:25:59;;;;;;;33.20;16.92;;;;;;;;;;5002009;27;100272;-72
2022/03/16 11:29:05;;;;;;;35.95;19.95;;;;;;;;;;5001914;27;100195;-73
2022/03/16 11:31:32;;;;;;;39.88;23.13;;;;;;;;;;5035668;27;100680;-72
2022/03/16 11:34:03;;;;;;;44.22;24.42;;;;;;;;;;5016290;27;100343;-73
2022/03/16 11:36:43;;;;;;;46.97;25.27;;;;;;;;;;5016232;27;100309;-72
2022/03/16 11:39:20;;;;;;;40.05;21.60;;;;;;;;;;5001610;27;104067;-72
2022/03/16 11:41:56;;;;;;;39.83;21.95;;;;;;;;;;5033862;27;100645;-72
2022/03/16 11:44:25;;;;;;;45.47;27.00;;;;;;;;;;5033040;27;100197;-73
2022/03/16 11:46:53;;;;;;;43.60;23.38;;;;;;;;;;5015679;27;100161;-72
2022/03/16 11:49:30;;;;;;;43.47;23.85;;;;;;;;;;5032800;27;100370;-72
2022/03/16 11:52:01;;;;;;;43.05;23.95;;;;;;;;;;5032917;27;100079;-72
2022/03/16 11:54:48;;;;;;;44.03;25.13;;;;;;;;;;5033036;27;100259;-72
2022/03/16 11:57:51;;;;;;;48.25;28.10;;;;;;;;;;5015045;27;100152;-72
2022/03/16 12:00:21;;;;;;;37.53;21.23;;;;;;;;;;5017708;27;104346;-72
2022/03/16 12:02:52;;;;;;;43.90;24.13;;;;;;;;;;5032678;27;102186;-71
2022/03/16 12:05:20;;;;;;;45.00;25.25;;;;;;;;;;5033287;27;100060;-72
2022/03/16 12:07:47;;;;;;;50.53;26.45;;;;;;;;;;5015123;27;100059;-72
2022/03/16 12:10:19;;;;;;;49.47;28.02;;;;;;;;;;4993323;27;101659;-72
2022/03/16 12:12:59;;;;;;;49.95;26.75;;;;;;;;;;5015228;27;100505;-72
2022/03/16 12:15:39;;;;;;;40.20;22.52;;;;;;;;;;5002172;27;100321;-72
2022/03/16 12:18:07;;;;;;;38.90;21.10;;;;;;;;;;5015406;27;101709;-72
2022/03/16 12:20:49;;;;;;;40.38;23.15;;;;;;;;;;5032480;27;101442;-72
2022/03/16 12:23:18;;;;;;;35.35;23.20;;;;;;;;;;5032441;27;100586;-72
2022/03/16 12:25:48;;;;;;;29.15;16.73;;;;;;;;;;4998680;27;100228;-72
2022/03/16 12:31:12;;;;;;;27.75;16.50;;;;;;;;;;4999943;27;100949;-72
2022/03/16 12:33:42;;;;;;;33.83;17.50;;;;;;;;;;5032435;27;101095;-72
2022/03/16 12:36:13;;;;;;;40.00;21.10;;;;;;;;;;5002933;28;99940;-72
2022/03/16 12:38:41;;;;;;;42.13;21.48;;;;;;;;;;5036612;27;100090;-72
2022/03/16 12:43:56;;;;;;;34.90;19.92;;;;;;;;;;5037413;27;100656;-72
2022/03/16 12:46:25;;;;;;;33.20;17.80;;;;;;;;;;5019147;27;100118;-72
2022/03/16 12:48:55;;;;;;;29.42;17.05;;;;;;;;;;4999267;28;100455;-72
2022/03/16 12:51:46;;;;;;;35.15;18.63;;;;;;;;;;5018262;27;100256;-72
2022/03/16 12:54:20;;;;;;;30.02;15.82;;;;;;;;;;5038760;27;100619;-72
2022/03/16 12:56:50;;;;;;;35.92;18.85;;;;;;;;;;5020970;27;100075;-73
2022/03/16 12:59:28;;;;;;;28.17;16.98;;;;;;;;;;5017933;27;100132;-72
2022/03/16 13:01:56;;;;;;;26.88;15.45;;;;;;;;;;4996979;28;100379;-72
2022/03/16 13:04:26;;;;;;;31.88;18.60;;;;;;;;;;5014167;28;100657;-72
2022/03/16 13:06:54;;;;;;;34.15;18.73;;;;;;;;;;5015082;28;100064;-72
2022/03/16 13:09:21;;;;;;;40.17;20.95;;;;;;;;;;5014081;28;100065;-74
2022/03/16 13:11:47;;;;;;;33.05;19.63;;;;;;;;;;5015184;28;100152;-72
2022/03/16 13:14:19;;;;;;;34.72;19.83;;;;;;;;;;5009547;28;100577;-70
2022/03/16 13:16:47;;;;;;;35.15;18.73;;;;;;;;;;5006642;28;100697;-71
2022/03/16 13:19:24;;;;;;;35.53;19.75;;;;;;;;;;5014763;28;100157;-71
2022/03/16 13:22:02;;;;;;;33.85;18.88;;;;;;;;;;4996315;28;100987;-71
2022/03/16 13:24:33;;;;;;;37.78;18.95;;;;;;;;;;5014289;28;101678;-72
2022/03/16 13:27:01;;;;;;;37.15;18.63;;;;;;;;;;5013202;28;102098;-72
2022/03/16 13:29:28;;;;;;;34.95;20.15;;;;;;;;;;4998161;28;100275;-72
2022/03/16 13:31:56;;;;;;;33.05;20.48;;;;;;;;;;4997354;28;100356;-72
2022/03/16 13:34:24;;;;;;;42.67;23.08;;;;;;;;;;5013107;28;101221;-72
2022/03/16 13:36:51;;;;;;;37.28;19.83;;;;;;;;;;5013855;28;100075;-72
2022/03/16 13:39:28;;;;;;;40.03;21.23;;;;;;;;;;5014851;28;100156;-72
2022/03/16 13:42:15;;;;;;;35.45;19.95;;;;;;;;;;5011700;28;102457;-72
2022/03/16 13:44:43;;;;;;;37.15;21.38;;;;;;;;;;5011975;28;100628;-72
2022/03/16 13:47:17;;;;;;;31.60;19.25;;;;;;;;;;5005381;28;100027;-72
2022/03/16 13:49:59;;;;;;;33.63;18.10;;;;;;;;;;5011775;28;100682;-72
2022/03/16 13:52:28;;;;;;;26.63;14.18;;;;;;;;;;4996353;28;100208;-74
2022/03/16 13:55:11;;;;;;;32.05;16.45;;;;;;;;;;4949670;28;101192;-72
2022/03/16 13:57:46;;;;;;;30.55;15.98;;;;;;;;;;5012215;28;100138;-72
2022/03/16 14:00:16;;;;;;;33.08;16.23;;;;;;;;;;4998670;27;100219;-72
2022/03/16 14:02:43;;;;;;;34.58;19.67;;;;;;;;;;5003689;27;100898;-73
2022/03/16 14:05:16;;;;;;;42.35;22.88;;;;;;;;;;5018237;27;100627;-72
2022/03/16 14:07:45;;;;;;;31.08;16.58;;;;;;;;;;5015616;27;100344;-72
2022/03/16 14:10:33;;;;;;;37.83;20.17;;;;;;;;;;4999060;27;101428;-73
2022/03/16 14:13:03;;;;;;;27.70;17.08;;;;;;;;;;5032317;27;101616;-71
2022/03/16 14:15:30;;;;;;;27.30;16.77;;;;;;;;;;5014622;27;101212;-71
2022/03/16 14:18:11;;;;;;;33.20;17.58;;;;;;;;;;5033545;27;100221;-72
2022/03/16 14:20:42;;;;;;;28.50;17.58;;;;;;;;;;4999602;27;100118;-71
2022/03/16 14:23:09;;;;;;;26.52;14.95;;;;;;;;;;4981332;27;102462;-71
2022/03/16 14:25:50;;;;;;;29.52;16.33;;;;;;;;;;4998123;27;100557;-71
2022/03/16 14:28:17;;;;;;;28.23;16.70;;;;;;;;;;5033169;27;100047;-71
2022/03/16 14:30:49;;;;;;;27.63;16.58;;;;;;;;;;5034408;27;100095;-71
2022/03/16 14:33:18;;;;;;;24.92;14.13;;;;;;;;;;4999500;27;101034;-75
2022/03/16 14:35:45;;;;;;;31.77;19.33;;;;;;;;;;4998506;27;100616;-72
2022/03/16 14:38:15;;;;;;;23.10;14.05;;;;;;;;;;5015471;27;99957;-72
2022/03/16 14:40:43;;;;;;;37.17;17.83;;;;;;;;;;5001138;27;101256;-72
2022/03/16 14:43:10;;;;;;;29.02;13.27;;;;;;;;;;4981105;27;100778;-72
2022/03/16 14:45:38;;;;;;;26.35;14.10;;;;;;;;;;5015435;27;100632;-71